Time;durP1;ratioP1;P1;durP2;ratioP2;P2;SDS_P1;SDS_P2;PMS_P1;PMS_P2;Temp;Humidity;BMP_temperature;BMP_pressure;BME280_temperature;BME280_humidity;BME280_pressure;Samples;Min_cycle;Max_cycle;Signal;HPM_P1;HPM_P2
2023/03/14 00:00:51;;;;;;;17.40;3.30;;;10.90;73.70;;;;;;5084122;28;20642;-77
2023/03/14 00:03:19;;;;;;;16.17;2.65;;;10.90;73.60;;;;;;5063322;28;20104;-77
2023/03/14 00:05:46;;;;;;;17.45;3.17;;;10.90;73.60;;;;;;5051143;28;20492;-77
2023/03/14 00:08:13;;;;;;;21.15;3.30;;;10.90;73.60;;;;;;5067518;28;20049;-75
2023/03/14 00:10:41;;;;;;;18.40;2.97;;;10.90;73.70;;;;;;5068600;28;20136;-76
2023/03/14 00:13:08;;;;;;;15.15;2.67;;;11.00;73.50;;;;;;5067351;28;20546;-77
2023/03/14 00:15:35;;;;;;;16.70;2.88;;;11.00;73.50;;;;;;5067356;28;20727;-77
2023/03/14 00:18:02;;;;;;;16.77;3.63;;;11.00;73.50;;;;;;5050655;28;20049;-77
2023/03/14 00:20:30;;;;;;;15.85;2.97;;;11.00;73.30;;;;;;5067418;28;20156;-77
2023/03/14 00:22:57;;;;;;;13.67;2.50;;;11.00;73.40;;;;;;5065968;28;20148;-77
2023/03/14 00:25:24;;;;;;;18.95;3.08;;;11.10;73.40;;;;;;5060253;28;20158;-77
2023/03/14 00:27:52;;;;;;;11.35;2.25;;;11.10;73.30;;;;;;5060448;28;20100;-77
2023/03/14 00:30:19;;;;;;;10.50;2.10;;;11.10;73.30;;;;;;5065079;28;20338;-76
2023/03/14 00:32:47;;;;;;;16.67;3.05;;;11.10;73.30;;;;;;5066955;28;20128;-77
2023/03/14 00:35:14;;;;;;;16.07;3.10;;;11.10;73.00;;;;;;5048901;28;20578;-77
2023/03/14 00:37:42;;;;;;;18.98;3.33;;;11.10;72.80;;;;;;5047347;28;20948;-77
2023/03/14 00:40:11;;;;;;;15.30;2.80;;;11.20;72.80;;;;;;5066906;28;20052;-77
2023/03/14 00:42:38;;;;;;;15.07;2.58;;;11.30;72.80;;;;;;5070393;28;20136;-77
2023/03/14 00:45:07;;;;;;;15.68;2.92;;;11.20;72.90;;;;;;5054278;28;20138;-77
2023/03/14 00:47:38;;;;;;;20.67;3.37;;;11.30;73.00;;;;;;5066939;28;20146;-77
2023/03/14 00:50:06;;;;;;;21.13;3.33;;;11.30;73.00;;;;;;5047609;28;20045;-77
2023/03/14 00:52:33;;;;;;;14.00;3.15;;;11.30;73.10;;;;;;5062791;28;20136;-76
2023/03/14 00:55:02;;;;;;;14.18;2.75;;;11.30;73.30;;;;;;5040721;28;20053;-77
2023/03/14 00:57:29;;;;;;;17.25;3.15;;;11.30;73.40;;;;;;5044850;28;20720;-77
2023/03/14 00:59:56;;;;;;;18.30;3.10;;;11.30;73.60;;;;;;5062236;28;20128;-77
2023/03/14 01:02:23;;;;;;;14.32;2.33;;;11.30;73.80;;;;;;5030755;28;20498;-77
2023/03/14 01:04:50;;;;;;;18.52;3.15;;;11.30;74.20;;;;;;5047915;28;20107;-77
2023/03/14 01:07:17;;;;;;;18.17;3.45;;;11.30;74.40;;;;;;5049787;28;20061;-77
2023/03/14 01:09:44;;;;;;;14.93;3.17;;;11.30;75.00;;;;;;5049483;28;20448;-77
2023/03/14 01:12:13;;;;;;;11.63;2.63;;;11.30;75.40;;;;;;5066683;28;20155;-77
2023/03/14 01:14:42;;;;;;;16.88;3.53;;;11.30;75.80;;;;;;5050295;28;20543;-77
2023/03/14 01:17:09;;;;;;;16.05;4.00;;;11.30;76.10;;;;;;5049164;28;20049;-77
2023/03/14 01:19:36;;;;;;;15.35;3.42;;;11.40;76.20;;;;;;5046576;28;20045;-77
2023/03/14 01:22:04;;;;;;;11.88;3.03;;;11.40;76.10;;;;;;5052337;28;20800;-77
2023/03/14 01:24:31;;;;;;;15.40;3.53;;;11.30;76.20;;;;;;5069471;28;20038;-76
2023/03/14 01:26:58;;;;;;;14.93;3.78;;;11.30;76.00;;;;;;5052340;28;20067;-77
2023/03/14 01:29:28;;;;;;;14.48;3.13;;;11.30;75.80;;;;;;5065949;28;20049;-76
2023/03/14 01:31:55;;;;;;;14.35;3.60;;;11.40;75.70;;;;;;5050179;28;20054;-77
2023/03/14 01:34:22;;;;;;;12.00;3.45;;;11.40;75.00;;;;;;5050139;28;20685;-78
2023/03/14 01:36:50;;;;;;;15.50;3.30;;;11.40;75.00;;;;;;5033446;28;20076;-77
2023/03/14 01:39:17;;;;;;;8.65;2.63;;;11.30;75.10;;;;;;5032688;28;20056;-77
2023/03/14 01:41:44;;;;;;;14.73;3.60;;;11.30;74.80;;;;;;5044232;28;20064;-77
2023/03/14 01:44:12;;;;;;;14.70;3.30;;;11.30;74.80;;;;;;5044644;28;20051;-76
2023/03/14 01:46:42;;;;;;;15.00;3.00;;;11.30;75.00;;;;;;5051751;28;20480;-77
2023/03/14 01:49:25;;;;;;;15.03;2.93;;;11.20;75.00;;;;;;5052271;28;20408;-76
2023/03/14 01:52:04;;;;;;;12.70;2.40;;;11.30;74.70;;;;;;5069011;28;20494;-76
2023/03/14 01:54:35;;;;;;;13.75;2.88;;;11.20;74.60;;;;;;5045045;28;20049;-76
2023/03/14 01:57:07;;;;;;;11.23;2.25;;;11.20;74.60;;;;;;5052516;28;20037;-76
2023/03/14 01:59:35;;;;;;;14.23;3.08;;;11.10;74.60;;;;;;5058153;28;20590;-75
2023/03/14 02:02:07;;;;;;;10.30;2.47;;;11.10;74.70;;;;;;5069188;28;20151;-75
2023/03/14 02:04:36;;;;;;;11.02;2.75;;;11.10;74.70;;;;;;5048934;28;20057;-75
2023/03/14 02:07:11;;;;;;;12.25;2.30;;;11.10;74.80;;;;;;5043119;28;20137;-76
2023/03/14 02:09:43;;;;;;;15.50;3.35;;;11.10;75.00;;;;;;5050104;28;20048;-75
2023/03/14 02:12:17;;;;;;;9.30;2.45;;;11.10;75.20;;;;;;5051370;28;20127;-76
2023/03/14 02:14:48;;;;;;;16.40;2.87;;;11.00;75.20;;;;;;5045000;28;20577;-75
2023/03/14 02:17:31;;;;;;;17.73;3.05;;;11.00;75.40;;;;;;5059927;28;20059;-75
2023/03/14 02:20:14;;;;;;;15.45;3.25;;;11.00;75.40;;;;;;5084118;28;20459;-75
2023/03/14 02:22:46;;;;;;;12.27;3.22;;;11.00;75.50;;;;;;5050026;28;20052;-75
2023/03/14 02:25:17;;;;;;;13.57;2.88;;;10.90;75.70;;;;;;5040529;28;20080;-76
2023/03/14 02:27:48;;;;;;;12.70;3.20;;;10.90;75.80;;;;;;5064001;28;20060;-76
2023/03/14 02:30:19;;;;;;;11.73;2.63;;;10.90;76.00;;;;;;5045802;28;20054;-75
2023/03/14 02:32:49;;;;;;;15.70;3.78;;;10.90;76.00;;;;;;5059880;28;20053;-75
2023/03/14 02:35:22;;;;;;;18.88;3.45;;;10.90;76.20;;;;;;5067604;28;20055;-76
2023/03/14 02:37:52;;;;;;;12.52;3.28;;;10.90;76.20;;;;;;5065718;28;20053;-76
2023/03/14 02:40:20;;;;;;;15.43;3.90;;;10.90;76.30;;;;;;5049067;28;20041;-75
2023/03/14 02:42:52;;;;;;;11.27;2.92;;;10.90;76.60;;;;;;5055719;28;20354;-75
2023/03/14 02:45:39;;;;;;;13.32;3.70;;;10.80;76.70;;;;;;5067718;28;20060;-75
2023/03/14 02:48:11;;;;;;;15.93;3.20;;;10.80;77.10;;;;;;5069049;28;20597;-76
2023/03/14 02:50:39;;;;;;;15.00;4.13;;;10.90;77.10;;;;;;5050544;28;20041;-75
2023/03/14 02:53:07;;;;;;;14.30;3.30;;;10.80;77.40;;;;;;5050499;28;20064;-75
2023/03/14 02:55:34;;;;;;;15.95;3.50;;;10.80;77.60;;;;;;5042192;28;20557;-75
2023/03/14 02:58:09;;;;;;;9.35;2.47;;;10.80;77.60;;;;;;5051500;28;20049;-75
2023/03/14 03:00:36;;;;;;;8.82;3.03;;;10.80;77.60;;;;;;5045922;28;20048;-76
2023/03/14 03:03:06;;;;;;;15.40;3.20;;;10.80;77.90;;;;;;5056374;28;20049;-75
2023/03/14 03:05:33;;;;;;;12.27;2.70;;;10.70;78.20;;;;;;5048220;28;20503;-75
2023/03/14 03:08:00;;;;;;;9.30;2.75;;;10.70;78.30;;;;;;5043553;28;20053;-75
2023/03/14 03:10:28;;;;;;;10.82;2.47;;;10.70;78.70;;;;;;5042041;28;20084;-75
2023/03/14 03:12:55;;;;;;;11.40;2.45;;;10.60;78.80;;;;;;5093954;28;20053;-76
2023/03/14 03:15:27;;;;;;;10.82;2.83;;;10.60;79.10;;;;;;5048170;28;20045;-76
2023/03/14 03:17:54;;;;;;;10.00;2.43;;;10.60;79.20;;;;;;5045061;28;20140;-75
2023/03/14 03:20:21;;;;;;;7.88;2.33;;;10.50;79.50;;;;;;5049886;28;20049;-75
2023/03/14 03:22:49;;;;;;;6.97;1.83;;;10.60;79.60;;;;;;5068064;28;20788;-76
2023/03/14 03:25:17;;;;;;;9.13;1.98;;;10.50;79.50;;;;;;5068469;28;20602;-76
2023/03/14 03:27:46;;;;;;;9.48;3.20;;;10.50;79.90;;;;;;5051239;28;20053;-75
2023/03/14 03:30:18;;;;;;;8.17;2.70;;;10.50;80.00;;;;;;5067374;28;20151;-74
2023/03/14 03:32:46;;;;;;;9.57;3.10;;;10.50;79.90;;;;;;5062314;28;20127;-75
2023/03/14 03:35:14;;;;;;;11.02;3.05;;;10.50;80.00;;;;;;5045328;28;20597;-75
2023/03/14 03:37:42;;;;;;;11.13;3.42;;;10.40;80.20;;;;;;5065754;28;20486;-75
2023/03/14 03:40:10;;;;;;;14.00;3.60;;;10.40;80.40;;;;;;5067958;28;20114;-76
2023/03/14 03:42:38;;;;;;;10.57;2.90;;;10.40;80.50;;;;;;5051040;28;20509;-76
2023/03/14 03:45:09;;;;;;;10.80;2.83;;;10.40;80.70;;;;;;5051379;28;20053;-75
2023/03/14 03:47:42;;;;;;;9.07;3.05;;;10.30;80.80;;;;;;5046630;28;20099;-76
2023/03/14 03:50:11;;;;;;;16.23;3.50;;;10.30;80.90;;;;;;5046712;28;20048;-75
2023/03/14 03:52:38;;;;;;;12.00;3.83;;;10.30;81.20;;;;;;5065354;28;20106;-76
2023/03/14 03:55:06;;;;;;;11.47;3.50;;;10.30;81.30;;;;;;5053853;28;20136;-76
2023/03/14 03:57:33;;;;;;;11.95;3.10;;;10.30;81.50;;;;;;5048924;28;20487;-76
2023/03/14 04:00:00;;;;;;;9.88;2.88;;;10.20;81.70;;;;;;5055832;28;20053;-76
2023/03/14 04:02:28;;;;;;;7.63;2.15;;;10.20;81.80;;;;;;5064074;28;20049;-76
2023/03/14 04:04:55;;;;;;;12.88;3.13;;;10.20;82.30;;;;;;5048323;28;20511;-76
2023/03/14 04:07:24;;;;;;;9.57;2.70;;;10.20;82.20;;;;;;5084605;28;20135;-76
2023/03/14 04:09:51;;;;;;;11.35;2.88;;;10.10;82.50;;;;;;5036136;28;20064;-75
2023/03/14 04:12:31;;;;;;;8.93;2.47;;;10.10;82.70;;;;;;5057712;28;20642;-76
2023/03/14 04:15:18;;;;;;;10.68;2.85;;;10.10;82.80;;;;;;5064110;28;20069;-76
2023/03/14 04:17:48;;;;;;;9.68;2.38;;;10.10;82.70;;;;;;5050351;28;20053;-76
2023/03/14 04:20:16;;;;;;;10.00;2.70;;;10.20;82.70;;;;;;5066814;28;20531;-75
2023/03/14 04:22:44;;;;;;;12.07;3.08;;;10.20;82.50;;;;;;5066660;28;20179;-76
2023/03/14 04:25:11;;;;;;;8.30;2.60;;;10.20;82.50;;;;;;5041358;28;20053;-75
2023/03/14 04:27:43;;;;;;;13.98;2.78;;;10.20;82.50;;;;;;5030696;28;20049;-76
2023/03/14 04:30:18;;;;;;;8.93;2.55;;;10.10;82.60;;;;;;5059538;28;20489;-76
2023/03/14 04:32:58;;;;;;;9.60;2.40;;;10.20;82.70;;;;;;5045848;28;20150;-76
2023/03/14 04:35:27;;;;;;;9.25;2.72;;;10.10;82.80;;;;;;5043476;28;20045;-75
2023/03/14 04:37:59;;;;;;;6.93;2.08;;;10.10;83.20;;;;;;5062795;28;20052;-75
2023/03/14 04:40:27;;;;;;;13.63;3.05;;;10.10;83.20;;;;;;5066708;28;20538;-76
2023/03/14 04:42:59;;;;;;;6.65;1.98;;;10.00;83.50;;;;;;5034177;28;20569;-76
2023/03/14 04:45:26;;;;;;;9.37;3.00;;;10.00;83.90;;;;;;5041700;28;20060;-75
2023/03/14 04:47:56;;;;;;;11.45;2.97;;;10.00;84.00;;;;;;5064059;28;20141;-76
2023/03/14 04:50:23;;;;;;;11.50;2.90;;;10.00;84.10;;;;;;5049728;28;20107;-76
2023/03/14 04:52:50;;;;;;;9.35;3.25;;;10.00;84.10;;;;;;5066940;28;20049;-76
2023/03/14 04:55:19;;;;;;;9.95;3.40;;;10.00;84.20;;;;;;5046058;28;20060;-76
2023/03/14 04:57:46;;;;;;;11.13;3.13;;;10.00;84.30;;;;;;5045494;28;20126;-76
2023/03/14 05:00:17;;;;;;;9.82;3.20;;;10.00;84.20;;;;;;5053432;28;20045;-75
2023/03/14 05:03:07;;;;;;;10.35;3.03;;;10.00;84.20;;;;;;5070010;28;20573;-76
2023/03/14 05:06:00;;;;;;;11.60;3.75;;;9.90;84.10;;;;;;5067629;28;20052;-76
2023/03/14 05:08:53;;;;;;;13.05;3.10;;;9.90;84.00;;;;;;5061656;28;20060;-77
2023/03/14 05:11:24;;;;;;;11.00;3.00;;;9.90;84.00;;;;;;5071666;28;20508;-76
2023/03/14 05:14:05;;;;;;;9.18;2.90;;;9.90;83.90;;;;;;5051476;28;20056;-76
2023/03/14 05:16:52;;;;;;;12.80;3.42;;;9.90;83.70;;;;;;5044301;28;20060;-76
2023/03/14 05:19:37;;;;;;;8.63;2.83;;;9.90;83.70;;;;;;5041742;28;20546;-76
2023/03/14 05:22:29;;;;;;;10.15;3.03;;;9.90;83.50;;;;;;5043194;28;20079;-75
2023/03/14 05:24:58;;;;;;;8.93;3.00;;;10.00;83.40;;;;;;5062763;28;20160;-76
2023/03/14 05:27:56;;;;;;;10.20;3.28;;;10.00;83.30;;;;;;5039550;28;20056;-76
2023/03/14 05:30:40;;;;;;;11.15;3.47;;;10.00;83.20;;;;;;5039196;28;20548;-76
2023/03/14 05:33:32;;;;;;;10.82;3.40;;;10.00;83.30;;;;;;5049665;28;20045;-76
2023/03/14 05:36:12;;;;;;;11.77;3.10;;;10.00;83.40;;;;;;5049725;28;20658;-76
2023/03/14 05:38:57;;;;;;;9.23;3.40;;;10.00;83.50;;;;;;5067846;28;20049;-76
2023/03/14 05:41:50;;;;;;;12.10;3.70;;;10.00;83.70;;;;;;5044569;28;20048;-77
2023/03/14 05:44:28;;;;;;;10.00;2.97;;;10.00;84.00;;;;;;5044295;28;20132;-76
2023/03/14 05:47:11;;;;;;;12.95;3.78;;;9.90;84.30;;;;;;5070230;28;20061;-76
2023/03/14 05:49:49;;;;;;;9.57;3.50;;;9.90;84.40;;;;;;5048941;28;20044;-76
2023/03/14 05:52:30;;;;;;;13.33;3.37;;;9.90;84.40;;;;;;5049186;28;20052;-76
2023/03/14 05:55:04;;;;;;;8.55;3.22;;;9.90;84.80;;;;;;5063118;28;20052;-76
2023/03/14 05:57:54;;;;;;;13.40;3.50;;;9.90;85.00;;;;;;5042619;28;20072;-76
2023/03/14 06:00:41;;;;;;;9.93;3.45;;;9.90;85.10;;;;;;5064901;28;20060;-76
2023/03/14 06:03:43;;;;;;;10.50;3.83;;;9.80;85.30;;;;;;5003141;28;20524;-77
2023/03/14 06:06:10;;;;;;;11.77;3.43;;;9.80;85.70;;;;;;5056566;28;20079;-76
2023/03/14 06:08:37;;;;;;;9.50;3.00;;;9.80;85.80;;;;;;5052703;28;20053;-76
2023/03/14 06:11:06;;;;;;;7.93;2.25;;;9.70;85.90;;;;;;5051824;28;20049;-76
2023/03/14 06:13:33;;;;;;;8.32;2.92;;;9.80;86.10;;;;;;5048968;28;20053;-76
2023/03/14 06:16:02;;;;;;;9.88;3.38;;;9.80;86.00;;;;;;5044266;28;20603;-76
2023/03/14 06:18:29;;;;;;;10.40;2.73;;;9.80;86.00;;;;;;5047823;28;20055;-76
2023/03/14 06:20:57;;;;;;;7.55;2.45;;;9.70;86.30;;;;;;5068787;28;20495;-76
2023/03/14 06:23:27;;;;;;;6.18;2.25;;;9.70;86.40;;;;;;5052010;28;20518;-76
2023/03/14 06:25:56;;;;;;;5.55;1.98;;;9.70;86.30;;;;;;5045419;28;20121;-77
2023/03/14 06:28:25;;;;;;;10.07;3.08;;;9.70;86.50;;;;;;5052458;28;20052;-76
2023/03/14 06:30:52;;;;;;;9.50;2.93;;;9.70;86.60;;;;;;5069396;28;20052;-77
2023/03/14 06:33:21;;;;;;;9.60;3.20;;;9.70;86.70;;;;;;5072692;28;20205;-76
2023/03/14 06:35:48;;;;;;;8.45;2.97;;;9.60;86.90;;;;;;5089366;28;20048;-77
2023/03/14 06:38:15;;;;;;;8.95;2.83;;;9.60;86.90;;;;;;5082917;28;20598;-77
2023/03/14 06:40:43;;;;;;;8.43;2.50;;;9.60;86.90;;;;;;5068808;28;20539;-75
2023/03/14 06:43:17;;;;;;;8.47;2.43;;;9.60;86.80;;;;;;5068870;28;20123;-77
2023/03/14 06:45:46;;;;;;;7.45;2.10;;;9.60;86.80;;;;;;5052207;28;20052;-77
2023/03/14 06:48:13;;;;;;;7.78;2.30;;;9.60;86.80;;;;;;5034564;28;20041;-76
2023/03/14 06:50:49;;;;;;;8.63;2.50;;;9.60;86.80;;;;;;5045268;28;20503;-76
2023/03/14 06:53:16;;;;;;;6.55;2.00;;;9.60;86.90;;;;;;5051531;28;20096;-76
2023/03/14 06:55:45;;;;;;;6.43;1.90;;;9.70;86.90;;;;;;5052023;28;20045;-76
2023/03/14 06:58:13;;;;;;;7.68;1.85;;;9.70;86.60;;;;;;5044418;28;20046;-76
2023/03/14 07:00:44;;;;;;;7.45;1.90;;;9.70;86.50;;;;;;5051067;28;20053;-76
2023/03/14 07:03:15;;;;;;;6.10;1.85;;;9.60;86.70;;;;;;5051123;28;20045;-76
2023/03/14 07:05:45;;;;;;;6.68;1.92;;;9.60;86.50;;;;;;5052152;28;20409;-76
2023/03/14 07:08:13;;;;;;;5.30;1.60;;;9.70;86.50;;;;;;5042294;28;20045;-77
2023/03/14 07:10:40;;;;;;;3.78;0.95;;;9.60;86.60;;;;;;5073891;28;20064;-77
2023/03/14 07:13:08;;;;;;;3.47;0.73;;;9.60;85.40;;;;;;5067854;28;20127;-76
2023/03/14 07:15:44;;;;;;;2.95;0.55;;;9.50;85.00;;;;;;5031567;28;20056;-76
2023/03/14 07:18:11;;;;;;;5.05;0.85;;;9.40;84.70;;;;;;5037885;28;20180;-76
2023/03/14 07:20:39;;;;;;;4.47;0.67;;;9.40;84.50;;;;;;5080999;28;20046;-76
2023/03/14 07:23:07;;;;;;;3.30;0.45;;;9.30;84.60;;;;;;5046818;28;20057;-75
2023/03/14 07:25:44;;;;;;;5.00;0.40;;;9.20;84.10;;;;;;5065884;28;20126;-75
2023/03/14 07:28:11;;;;;;;1.50;0.17;;;9.00;82.80;;;;;;5074351;28;20118;-75
2023/03/14 07:30:41;;;;;;;3.05;0.25;;;9.00;83.00;;;;;;5067968;28;20439;-76
2023/03/14 07:33:15;;;;;;;3.40;0.20;;;9.00;82.50;;;;;;5058681;28;20080;-76
2023/03/14 07:35:42;;;;;;;3.20;0.45;;;9.00;81.20;;;;;;5062879;28;20574;-74
2023/03/14 07:38:10;;;;;;;4.43;0.30;;;9.00;80.70;;;;;;5084920;28;20369;-76
2023/03/14 07:40:46;;;;;;;4.60;0.40;;;8.90;78.60;;;;;;5041073;28;20725;-76
2023/03/14 07:43:13;;;;;;;4.18;0.30;;;8.90;79.60;;;;;;5079259;28;20713;-76
2023/03/14 07:45:48;;;;;;;5.53;0.20;;;8.90;79.00;;;;;;5065750;28;20056;-75
2023/03/14 07:48:15;;;;;;;1.52;0.10;;;8.60;76.80;;;;;;5092793;28;20111;-75
2023/03/14 07:50:42;;;;;;;2.15;0.10;;;8.60;76.90;;;;;;5043361;28;20052;-75
2023/03/14 07:53:10;;;;;;;3.05;0.15;;;8.50;77.70;;;;;;5064369;28;20110;-76
2023/03/14 07:55:37;;;;;;;2.47;0.20;;;8.50;77.50;;;;;;5066628;28;20116;-76
2023/03/14 07:58:06;;;;;;;2.70;0.20;;;8.40;76.60;;;;;;5066996;28;20056;-76
2023/03/14 08:00:33;;;;;;;3.25;0.10;;;8.40;77.00;;;;;;5061424;28;20064;-75
2023/03/14 08:03:00;;;;;;;2.08;0.10;;;8.30;77.70;;;;;;5060183;28;20506;-77
2023/03/14 08:05:27;;;;;;;4.13;0.13;;;8.20;76.40;;;;;;5065850;28;20049;-77
2023/03/14 08:07:54;;;;;;;2.88;0.00;;;8.20;77.50;;;;;;5096721;28;20152;-76
2023/03/14 08:10:22;;;;;;;2.20;0.00;;;8.20;77.70;;;;;;5061363;28;20053;-76
2023/03/14 08:12:49;;;;;;;2.38;0.13;;;8.20;77.80;;;;;;5047245;28;20045;-77
2023/03/14 08:15:17;;;;;;;2.72;0.40;;;8.10;78.00;;;;;;5062596;28;20145;-77
2023/03/14 08:17:44;;;;;;;1.95;0.15;;;8.10;77.50;;;;;;5060305;28;20115;-77
2023/03/14 08:20:13;;;;;;;1.17;0.10;;;8.10;77.90;;;;;;5061232;28;20200;-76
2023/03/14 08:22:43;;;;;;;2.87;0.07;;;8.10;77.80;;;;;;5058990;28;20052;-76
2023/03/14 08:25:10;;;;;;;3.45;0.20;;;8.00;77.00;;;;;;5061626;28;20057;-76
2023/03/14 08:27:38;;;;;;;1.75;0.10;;;8.00;77.50;;;;;;5066633;28;20111;-76
2023/03/14 08:30:06;;;;;;;2.75;0.22;;;8.00;77.80;;;;;;5061751;28;20053;-75
2023/03/14 08:32:35;;;;;;;2.80;0.20;;;8.00;77.50;;;;;;5064048;28;20124;-77
2023/03/14 08:35:02;;;;;;;3.57;0.30;;;8.00;77.10;;;;;;5039123;28;20045;-77
2023/03/14 08:37:29;;;;;;;2.65;0.22;;;8.00;77.50;;;;;;5059140;28;20075;-76
2023/03/14 08:39:56;;;;;;;2.60;0.17;;;7.90;77.60;;;;;;5060267;28;20143;-76
2023/03/14 08:42:23;;;;;;;2.58;0.32;;;7.90;77.80;;;;;;5036966;28;20056;-76
2023/03/14 08:44:51;;;;;;;1.30;0.10;;;7.90;77.80;;;;;;5093717;28;20111;-75
2023/03/14 08:47:18;;;;;;;5.40;0.20;;;7.80;77.90;;;;;;5060695;28;20152;-76
2023/03/14 08:49:46;;;;;;;2.83;0.17;;;7.80;77.90;;;;;;5066920;28;20048;-76
2023/03/14 08:52:14;;;;;;;3.10;0.30;;;7.80;78.10;;;;;;5063184;28;20107;-76
2023/03/14 08:54:41;;;;;;;2.70;0.17;;;7.80;78.20;;;;;;5070906;28;20049;-77
2023/03/14 08:57:08;;;;;;;2.17;0.20;;;7.80;78.00;;;;;;5071593;28;20049;-76
2023/03/14 08:59:35;;;;;;;4.00;0.27;;;7.80;78.00;;;;;;5054319;28;20045;-77
2023/03/14 09:02:03;;;;;;;4.00;0.30;;;7.80;77.60;;;;;;5063115;28;20164;-77
2023/03/14 09:04:30;;;;;;;3.25;0.20;;;7.80;77.70;;;;;;5068645;28;20045;-77
2023/03/14 09:06:58;;;;;;;2.72;0.20;;;7.80;77.40;;;;;;5070690;28;20088;-76
2023/03/14 09:09:26;;;;;;;3.55;0.10;;;7.80;77.20;;;;;;5074715;28;20547;-76
2023/03/14 09:11:53;;;;;;;3.93;0.30;;;7.70;76.90;;;;;;5064766;28;20045;-76
2023/03/14 09:14:20;;;;;;;5.13;0.30;;;7.70;77.20;;;;;;5047128;28;20049;-76
2023/03/14 09:16:47;;;;;;;4.30;0.35;;;7.70;77.50;;;;;;5045869;28;20487;-76
2023/03/14 09:19:14;;;;;;;5.35;0.30;;;7.60;76.60;;;;;;5061002;28;20507;-77
2023/03/14 09:21:41;;;;;;;6.15;0.50;;;7.60;76.60;;;;;;5062149;28;20143;-78
2023/03/14 09:24:10;;;;;;;4.17;0.53;;;7.60;76.70;;;;;;5062758;28;20053;-76
2023/03/14 09:26:37;;;;;;;3.65;0.50;;;7.60;76.90;;;;;;5064135;28;20064;-77
2023/03/14 09:29:04;;;;;;;6.30;0.73;;;7.60;77.00;;;;;;5064405;28;20053;-76
2023/03/14 09:31:31;;;;;;;6.57;0.68;;;7.60;77.10;;;;;;5097363;28;20077;-78
2023/03/14 09:33:58;;;;;;;7.07;0.55;;;7.60;77.20;;;;;;5064031;28;20508;-75
2023/03/14 09:36:25;;;;;;;7.83;0.63;;;7.50;77.20;;;;;;5065591;28;20133;-74
2023/03/14 09:38:52;;;;;;;8.07;0.95;;;7.60;77.20;;;;;;5040375;28;20049;-74
2023/03/14 09:41:25;;;;;;;9.75;0.95;;;7.50;77.30;;;;;;5064708;28;20591;-74
2023/03/14 09:44:01;;;;;;;7.45;0.73;;;7.50;77.30;;;;;;5062999;28;20045;-74
2023/03/14 09:46:29;;;;;;;8.25;1.10;;;7.60;77.60;;;;;;5069054;28;20060;-75
2023/03/14 09:48:56;;;;;;;7.07;0.50;;;7.60;77.50;;;;;;5100196;28;20332;-74
2023/03/14 09:51:23;;;;;;;8.18;0.70;;;7.60;77.70;;;;;;5060556;28;20138;-74
2023/03/14 09:53:52;;;;;;;7.35;0.98;;;7.60;76.70;;;;;;5071343;28;20060;-75
2023/03/14 09:56:24;;;;;;;8.65;0.85;;;7.60;76.80;;;;;;5064612;28;20518;-74
2023/03/14 09:58:55;;;;;;;9.68;0.82;;;7.60;77.00;;;;;;5067522;28;20496;-76
2023/03/14 10:01:26;;;;;;;12.47;1.23;;;7.60;76.30;;;;;;5050196;28;20077;-77
2023/03/14 10:03:55;;;;;;;7.60;0.82;;;7.60;76.30;;;;;;5061517;28;20057;-74
2023/03/14 10:06:25;;;;;;;4.15;0.60;;;7.60;76.50;;;;;;5065518;28;20502;-75
2023/03/14 10:08:52;;;;;;;11.10;1.40;;;7.60;76.60;;;;;;5061234;28;20049;-76
2023/03/14 10:11:21;;;;;;;9.48;1.10;;;7.60;75.80;;;;;;5069795;28;20052;-76
2023/03/14 10:14:05;;;;;;;10.87;1.27;;;7.50;75.30;;;;;;5077309;28;20405;-76
2023/03/14 10:16:33;;;;;;;8.02;0.88;;;7.50;75.50;;;;;;5062683;28;20186;-76
2023/03/14 10:19:05;;;;;;;13.27;1.60;;;7.50;75.90;;;;;;5065597;28;20123;-78
2023/03/14 10:21:39;;;;;;;9.45;2.17;;;7.50;76.20;;;;;;5067294;28;20211;-76
2023/03/14 10:24:13;;;;;;;9.35;1.00;;;7.50;75.50;;;;;;5078117;28;20068;-76
2023/03/14 10:26:41;;;;;;;5.47;0.90;;;7.50;74.40;;;;;;5066721;28;20061;-76
2023/03/14 10:29:12;;;;;;;10.02;1.42;;;7.40;71.90;;;;;;5046448;28;20100;-75
2023/03/14 10:31:52;;;;;;;12.18;1.20;;;7.40;72.40;;;;;;5065988;28;20053;-75
2023/03/14 10:34:24;;;;;;;11.80;1.45;;;7.30;72.60;;;;;;5063692;28;20120;-79
2023/03/14 10:36:56;;;;;;;15.27;1.38;;;7.30;73.10;;;;;;5065865;28;20095;-80
2023/03/14 10:39:41;;;;;;;13.77;1.30;;;7.20;72.40;;;;;;5042955;28;20519;-78
2023/03/14 10:42:19;;;;;;;11.05;1.00;;;7.20;70.10;;;;;;5060534;28;20053;-80
2023/03/14 10:44:49;;;;;;;12.10;1.48;;;7.20;71.40;;;;;;5063126;28;20056;-79
2023/03/14 10:47:19;;;;;;;11.27;1.50;;;7.20;71.00;;;;;;5046898;28;20549;-79
2023/03/14 10:49:47;;;;;;;7.07;1.52;;;7.10;71.90;;;;;;5064492;28;20136;-79
2023/03/14 10:52:16;;;;;;;9.20;1.00;;;7.10;72.00;;;;;;5063340;28;20434;-79
2023/03/14 10:54:48;;;;;;;7.32;1.13;;;7.10;72.40;;;;;;5043264;28;20053;-78
2023/03/14 10:57:16;;;;;;;7.13;1.00;;;7.20;71.70;;;;;;5067285;28;20504;-78
2023/03/14 10:59:44;;;;;;;9.80;1.40;;;7.10;69.40;;;;;;5063522;28;20499;-78
2023/03/14 11:02:32;;;;;;;10.43;1.88;;;7.00;68.10;;;;;;5039625;28;20112;-79
2023/03/14 11:05:12;;;;;;;6.90;0.90;;;7.10;67.60;;;;;;5096645;27;20088;-80
2023/03/14 11:07:41;;;;;;;7.72;0.77;;;7.10;69.30;;;;;;5040243;28;20179;-80
2023/03/14 11:10:20;;;;;;;10.27;1.15;;;7.00;67.70;;;;;;5058802;28;20154;-78
2023/03/14 11:13:02;;;;;;;6.95;0.65;;;7.00;66.20;;;;;;5048960;28;20585;-79
2023/03/14 11:15:35;;;;;;;7.72;0.80;;;7.00;65.90;;;;;;5066971;28;20049;-79
2023/03/14 11:18:30;;;;;;;5.07;0.83;;;7.00;66.50;;;;;;5089178;28;20689;-79
2023/03/14 11:21:02;;;;;;;13.07;1.25;;;7.00;68.20;;;;;;5058926;28;20675;-80
2023/03/14 11:23:39;;;;;;;8.07;1.15;;;7.10;68.90;;;;;;5040994;28;20045;-79
2023/03/14 11:26:20;;;;;;;10.13;0.80;;;7.00;63.60;;;;;;5082418;28;20516;-78
2023/03/14 11:28:51;;;;;;;4.75;0.50;;;7.00;65.40;;;;;;5050351;28;20049;-79
2023/03/14 11:31:24;;;;;;;5.07;0.80;;;7.00;64.30;;;;;;5048875;28;20054;-78
2023/03/14 11:33:57;;;;;;;7.78;0.73;;;7.00;62.30;;;;;;5049827;28;20045;-78
2023/03/14 11:36:30;;;;;;;3.85;0.50;;;7.00;62.10;;;;;;5086626;28;20068;-78
2023/03/14 11:38:59;;;;;;;6.03;0.60;;;7.00;60.40;;;;;;5100185;28;20612;-79
2023/03/14 11:41:30;;;;;;;6.07;0.70;;;7.00;61.00;;;;;;5067096;28;20104;-77
2023/03/14 11:44:03;;;;;;;4.83;0.60;;;7.00;59.60;;;;;;5067686;28;20132;-79
2023/03/14 11:46:35;;;;;;;10.50;0.50;;;7.00;60.10;;;;;;5063967;28;20132;-79
2023/03/14 11:49:10;;;;;;;5.72;0.50;;;7.00;61.60;;;;;;5095403;28;20145;-79
2023/03/14 11:51:39;;;;;;;4.90;0.85;;;7.00;62.30;;;;;;5062357;28;20749;-78
2023/03/14 11:54:16;;;;;;;4.20;0.50;;;7.00;62.70;;;;;;5067139;28;20088;-79
2023/03/14 11:56:48;;;;;;;6.57;0.60;;;7.00;62.50;;;;;;5062665;28;20060;-77
2023/03/14 11:59:20;;;;;;;6.05;0.60;;;7.00;64.20;;;;;;5064440;28;20459;-77
2023/03/14 12:01:54;;;;;;;3.95;0.50;;;7.10;60.90;;;;;;5044075;28;20136;-76
2023/03/14 12:04:40;;;;;;;6.45;0.88;;;7.10;58.80;;;;;;5062942;28;20053;-77
2023/03/14 12:07:14;;;;;;;3.92;0.40;;;7.10;58.60;;;;;;5064043;28;20542;-80
2023/03/14 12:09:41;;;;;;;6.40;0.50;;;7.10;58.40;;;;;;5067349;28;20069;-78
2023/03/14 12:12:15;;;;;;;2.15;0.40;;;7.20;59.30;;;;;;5067724;28;20440;-77
2023/03/14 12:14:53;;;;;;;4.88;0.80;;;7.20;57.50;;;;;;5058308;28;20147;-79
2023/03/14 12:17:22;;;;;;;3.13;0.40;;;7.20;53.70;;;;;;5046350;28;20045;-77
2023/03/14 12:20:01;;;;;;;5.50;0.70;;;7.20;56.40;;;;;;5063098;28;20513;-78
2023/03/14 12:22:29;;;;;;;5.77;0.77;;;7.20;56.20;;;;;;5063019;28;20053;-77
2023/03/14 12:25:01;;;;;;;2.90;0.38;;;7.20;53.90;;;;;;5061049;28;20135;-78
2023/03/14 12:27:47;;;;;;;2.42;0.30;;;7.20;56.00;;;;;;5044515;28;20042;-77
2023/03/14 12:30:30;;;;;;;4.70;0.65;;;7.20;52.60;;;;;;5065358;28;20053;-78
2023/03/14 12:33:13;;;;;;;7.22;0.65;;;7.20;53.60;;;;;;5062599;28;20049;-76
2023/03/14 12:35:42;;;;;;;5.13;0.40;;;7.30;52.10;;;;;;5074171;28;20049;-79
2023/03/14 12:38:14;;;;;;;5.53;0.40;;;7.40;54.80;;;;;;5053353;28;20056;-78
2023/03/14 12:40:48;;;;;;;3.75;0.43;;;7.40;56.70;;;;;;5068060;28;20056;-77
2023/03/14 12:43:26;;;;;;;6.60;0.57;;;7.50;57.60;;;;;;5059835;28;20045;-77
2023/03/14 12:46:16;;;;;;;4.65;0.40;;;7.50;55.40;;;;;;5063585;28;20111;-77
2023/03/14 12:48:46;;;;;;;5.07;0.50;;;7.70;56.50;;;;;;5064791;28;20052;-77
2023/03/14 12:51:15;;;;;;;6.22;0.80;;;7.80;54.80;;;;;;5090612;28;20515;-76
2023/03/14 12:54:08;;;;;;;6.05;0.60;;;7.80;55.70;;;;;;5066043;28;20080;-76
2023/03/14 12:56:57;;;;;;;2.22;0.30;;;7.80;53.90;;;;;;5063352;28;20131;-77
2023/03/14 12:59:32;;;;;;;3.15;0.50;;;7.80;55.80;;;;;;5097161;28;20133;-77
2023/03/14 13:02:30;;;;;;;6.03;0.60;;;7.80;50.60;;;;;;5079583;28;20119;-77
2023/03/14 13:05:05;;;;;;;6.53;0.60;;;7.70;52.40;;;;;;5016258;28;20148;-73
2023/03/14 13:07:57;;;;;;;3.90;0.32;;;7.60;53.30;;;;;;5066125;28;20064;-77
2023/03/14 13:10:25;;;;;;;6.60;0.63;;;7.60;53.60;;;;;;5063836;28;20057;-77